sensor_id;sensor_type;location;lat;lon;timestamp;P1;durP1;ratioP1;P2;durP2;ratioP2
72427;SDS011;60419;48.880;18.036;2023-12-20T00:02:05;130.75;;;37.72;;
72427;SDS011;60419;48.880;18.036;2023-12-20T00:04:51;95.00;;;35.67;;
72427;SDS011;60419;48.880;18.036;2023-12-20T00:07:36;90.18;;;36.42;;
72427;SDS011;60419;48.880;18.036;2023-12-20T00:10:22;235.35;;;44.10;;
72427;SDS011;60419;48.880;18.036;2023-12-20T00:13:07;230.63;;;42.75;;
72427;SDS011;60419;48.880;18.036;2023-12-20T00:15:52;109.85;;;36.55;;
72427;SDS011;60419;48.880;18.036;2023-12-20T00:18:38;120.90;;;36.92;;
72427;SDS011;60419;48.880;18.036;2023-12-20T00:21:23;124.90;;;37.40;;
72427;SDS011;60419;48.880;18.036;2023-12-20T00:24:09;115.50;;;37.03;;
72427;SDS011;60419;48.880;18.036;2023-12-20T00:26:54;133.45;;;36.83;;
72427;SDS011;60419;48.880;18.036;2023-12-20T00:29:39;218.35;;;43.75;;
72427;SDS011;60419;48.880;18.036;2023-12-20T00:32:25;404.60;;;50.58;;
72427;SDS011;60419;48.880;18.036;2023-12-20T00:35:10;172.05;;;37.80;;
72427;SDS011;60419;48.880;18.036;2023-12-20T00:37:55;101.82;;;32.83;;
72427;SDS011;60419;48.880;18.036;2023-12-20T00:40:41;257.20;;;40.75;;
72427;SDS011;60419;48.880;18.036;2023-12-20T00:43:26;527.30;;;58.67;;
72427;SDS011;60419;48.880;18.036;2023-12-20T00:46:11;174.25;;;37.63;;
72427;SDS011;60419;48.880;18.036;2023-12-20T00:48:57;385.88;;;50.75;;
72427;SDS011;60419;48.880;18.036;2023-12-20T00:51:42;97.65;;;34.05;;
72427;SDS011;60419;48.880;18.036;2023-12-20T00:54:28;143.52;;;35.38;;
72427;SDS011;60419;48.880;18.036;2023-12-20T00:57:14;155.02;;;37.30;;
72427;SDS011;60419;48.880;18.036;2023-12-20T01:00:00;128.65;;;35.55;;
72427;SDS011;60419;48.880;18.036;2023-12-20T01:02:45;459.08;;;56.60;;
72427;SDS011;60419;48.880;18.036;2023-12-20T01:05:34;222.30;;;39.58;;
72427;SDS011;60419;48.880;18.036;2023-12-20T01:08:19;242.30;;;40.67;;
72427;SDS011;60419;48.880;18.036;2023-12-20T01:11:05;117.53;;;34.70;;
72427;SDS011;60419;48.880;18.036;2023-12-20T01:13:50;268.70;;;42.60;;
72427;SDS011;60419;48.880;18.036;2023-12-20T01:16:36;146.50;;;36.67;;
72427;SDS011;60419;48.880;18.036;2023-12-20T01:19:21;178.98;;;38.88;;
72427;SDS011;60419;48.880;18.036;2023-12-20T01:22:07;124.88;;;34.80;;
72427;SDS011;60419;48.880;18.036;2023-12-20T01:24:53;130.13;;;34.78;;
72427;SDS011;60419;48.880;18.036;2023-12-20T01:27:38;85.60;;;32.03;;
72427;SDS011;60419;48.880;18.036;2023-12-20T01:30:24;154.50;;;34.97;;
72427;SDS011;60419;48.880;18.036;2023-12-20T01:33:09;205.52;;;37.28;;
72427;SDS011;60419;48.880;18.036;2023-12-20T01:35:54;208.07;;;37.90;;
72427;SDS011;60419;48.880;18.036;2023-12-20T01:38:40;119.38;;;31.27;;
72427;SDS011;60419;48.880;18.036;2023-12-20T01:41:25;205.88;;;37.33;;
72427;SDS011;60419;48.880;18.036;2023-12-20T01:44:10;84.18;;;30.90;;
72427;SDS011;60419;48.880;18.036;2023-12-20T01:46:56;196.60;;;34.88;;
72427;SDS011;60419;48.880;18.036;2023-12-20T01:49:42;91.65;;;32.47;;
72427;SDS011;60419;48.880;18.036;2023-12-20T01:52:28;229.20;;;38.45;;
72427;SDS011;60419;48.880;18.036;2023-12-20T01:55:14;295.73;;;41.47;;
72427;SDS011;60419;48.880;18.036;2023-12-20T01:58:00;104.25;;;30.88;;
72427;SDS011;60419;48.880;18.036;2023-12-20T02:00:46;108.95;;;30.70;;
72427;SDS011;60419;48.880;18.036;2023-12-20T02:03:31;100.25;;;30.05;;
72427;SDS011;60419;48.880;18.036;2023-12-20T02:06:18;387.27;;;44.92;;
72427;SDS011;60419;48.880;18.036;2023-12-20T02:09:04;161.52;;;33.15;;
72427;SDS011;60419;48.880;18.036;2023-12-20T02:11:49;283.55;;;38.00;;
72427;SDS011;60419;48.880;18.036;2023-12-20T02:14:35;99.05;;;31.90;;
72427;SDS011;60419;48.880;18.036;2023-12-20T02:17:20;206.52;;;36.45;;
72427;SDS011;60419;48.880;18.036;2023-12-20T02:20:06;184.93;;;34.75;;
72427;SDS011;60419;48.880;18.036;2023-12-20T02:22:51;203.65;;;34.97;;
72427;SDS011;60419;48.880;18.036;2023-12-20T02:25:37;122.97;;;32.90;;
72427;SDS011;60419;48.880;18.036;2023-12-20T02:28:22;226.32;;;38.33;;
72427;SDS011;60419;48.880;18.036;2023-12-20T02:31:08;297.58;;;41.85;;
72427;SDS011;60419;48.880;18.036;2023-12-20T02:33:53;212.07;;;40.60;;
72427;SDS011;60419;48.880;18.036;2023-12-20T02:36:39;120.53;;;34.03;;
72427;SDS011;60419;48.880;18.036;2023-12-20T02:39:24;182.75;;;39.80;;
72427;SDS011;60419;48.880;18.036;2023-12-20T02:42:10;416.42;;;51.53;;
72427;SDS011;60419;48.880;18.036;2023-12-20T02:44:55;132.70;;;37.70;;
72427;SDS011;60419;48.880;18.036;2023-12-20T02:47:40;159.25;;;36.90;;
72427;SDS011;60419;48.880;18.036;2023-12-20T02:50:26;272.13;;;40.83;;
72427;SDS011;60419;48.880;18.036;2023-12-20T02:53:11;255.02;;;39.08;;
72427;SDS011;60419;48.880;18.036;2023-12-20T02:55:57;170.93;;;36.28;;
72427;SDS011;60419;48.880;18.036;2023-12-20T02:58:42;167.07;;;35.08;;
72427;SDS011;60419;48.880;18.036;2023-12-20T03:01:28;387.20;;;49.13;;
72427;SDS011;60419;48.880;18.036;2023-12-20T03:04:14;232.85;;;37.13;;
72427;SDS011;60419;48.880;18.036;2023-12-20T03:06:59;231.48;;;37.70;;
72427;SDS011;60419;48.880;18.036;2023-12-20T03:09:44;272.35;;;40.65;;
72427;SDS011;60419;48.880;18.036;2023-12-20T03:12:30;299.80;;;43.17;;
72427;SDS011;60419;48.880;18.036;2023-12-20T03:15:15;243.45;;;38.30;;
72427;SDS011;60419;48.880;18.036;2023-12-20T03:18:01;179.30;;;36.63;;
72427;SDS011;60419;48.880;18.036;2023-12-20T03:20:46;303.92;;;43.38;;
72427;SDS011;60419;48.880;18.036;2023-12-20T03:23:34;568.65;;;60.60;;
72427;SDS011;60419;48.880;18.036;2023-12-20T03:26:20;441.65;;;49.75;;
72427;SDS011;60419;48.880;18.036;2023-12-20T03:29:07;184.68;;;38.97;;
72427;SDS011;60419;48.880;18.036;2023-12-20T03:31:52;178.68;;;36.05;;
72427;SDS011;60419;48.880;18.036;2023-12-20T03:34:37;390.38;;;51.03;;
72427;SDS011;60419;48.880;18.036;2023-12-20T03:37:23;149.85;;;35.00;;
72427;SDS011;60419;48.880;18.036;2023-12-20T03:40:08;471.80;;;54.00;;
72427;SDS011;60419;48.880;18.036;2023-12-20T03:42:54;211.35;;;40.15;;
72427;SDS011;60419;48.880;18.036;2023-12-20T03:45:40;202.30;;;38.90;;
72427;SDS011;60419;48.880;18.036;2023-12-20T03:48:25;205.55;;;37.92;;
72427;SDS011;60419;48.880;18.036;2023-12-20T03:51:10;269.00;;;42.22;;
72427;SDS011;60419;48.880;18.036;2023-12-20T03:53:57;128.77;;;33.25;;
72427;SDS011;60419;48.880;18.036;2023-12-20T03:56:42;190.40;;;36.13;;
72427;SDS011;60419;48.880;18.036;2023-12-20T03:59:28;465.73;;;49.85;;
72427;SDS011;60419;48.880;18.036;2023-12-20T04:02:13;143.88;;;35.47;;
72427;SDS011;60419;48.880;18.036;2023-12-20T04:04:59;96.80;;;30.92;;
72427;SDS011;60419;48.880;18.036;2023-12-20T04:07:44;199.27;;;37.22;;
72427;SDS011;60419;48.880;18.036;2023-12-20T04:10:29;127.75;;;31.63;;
72427;SDS011;60419;48.880;18.036;2023-12-20T04:13:15;116.78;;;32.05;;
72427;SDS011;60419;48.880;18.036;2023-12-20T04:16:00;196.73;;;38.03;;
72427;SDS011;60419;48.880;18.036;2023-12-20T04:18:45;93.55;;;29.83;;
72427;SDS011;60419;48.880;18.036;2023-12-20T04:21:31;100.20;;;31.13;;
72427;SDS011;60419;48.880;18.036;2023-12-20T04:24:16;186.18;;;35.67;;
72427;SDS011;60419;48.880;18.036;2023-12-20T04:27:02;142.32;;;32.75;;
72427;SDS011;60419;48.880;18.036;2023-12-20T04:29:47;154.80;;;33.50;;
72427;SDS011;60419;48.880;18.036;2023-12-20T04:32:33;146.40;;;33.22;;
72427;SDS011;60419;48.880;18.036;2023-12-20T04:35:18;141.45;;;33.25;;
72427;SDS011;60419;48.880;18.036;2023-12-20T04:38:03;357.95;;;45.05;;
72427;SDS011;60419;48.880;18.036;2023-12-20T04:40:49;292.80;;;41.90;;
72427;SDS011;60419;48.880;18.036;2023-12-20T04:43:34;203.68;;;35.80;;
72427;SDS011;60419;48.880;18.036;2023-12-20T04:46:19;102.22;;;31.58;;
72427;SDS011;60419;48.880;18.036;2023-12-20T04:49:05;266.83;;;38.42;;
72427;SDS011;60419;48.880;18.036;2023-12-20T04:51:51;96.78;;;28.35;;
72427;SDS011;60419;48.880;18.036;2023-12-20T04:54:36;164.45;;;33.00;;
72427;SDS011;60419;48.880;18.036;2023-12-20T04:57:21;157.75;;;34.05;;
72427;SDS011;60419;48.880;18.036;2023-12-20T05:00:07;121.13;;;32.33;;
72427;SDS011;60419;48.880;18.036;2023-12-20T05:02:53;108.20;;;31.73;;
72427;SDS011;60419;48.880;18.036;2023-12-20T05:05:39;219.38;;;36.45;;
72427;SDS011;60419;48.880;18.036;2023-12-20T05:08:24;185.70;;;35.22;;
72427;SDS011;60419;48.880;18.036;2023-12-20T05:11:10;124.35;;;31.73;;
72427;SDS011;60419;48.880;18.036;2023-12-20T05:13:55;122.57;;;31.75;;
72427;SDS011;60419;48.880;18.036;2023-12-20T05:16:41;87.57;;;29.48;;
72427;SDS011;60419;48.880;18.036;2023-12-20T05:19:26;79.90;;;28.90;;
72427;SDS011;60419;48.880;18.036;2023-12-20T05:22:11;76.00;;;28.48;;
72427;SDS011;60419;48.880;18.036;2023-12-20T05:24:57;70.65;;;29.13;;
72427;SDS011;60419;48.880;18.036;2023-12-20T05:27:42;73.40;;;28.30;;
72427;SDS011;60419;48.880;18.036;2023-12-20T05:30:27;71.82;;;26.67;;
72427;SDS011;60419;48.880;18.036;2023-12-20T05:33:13;70.72;;;31.13;;
72427;SDS011;60419;48.880;18.036;2023-12-20T05:35:58;65.60;;;27.67;;
72427;SDS011;60419;48.880;18.036;2023-12-20T05:38:44;71.55;;;29.77;;
72427;SDS011;60419;48.880;18.036;2023-12-20T05:41:30;68.50;;;28.52;;
72427;SDS011;60419;48.880;18.036;2023-12-20T05:44:16;69.82;;;27.45;;
72427;SDS011;60419;48.880;18.036;2023-12-20T05:47:02;74.43;;;26.65;;
72427;SDS011;60419;48.880;18.036;2023-12-20T05:49:47;70.32;;;27.77;;
72427;SDS011;60419;48.880;18.036;2023-12-20T05:52:33;65.60;;;27.90;;
72427;SDS011;60419;48.880;18.036;2023-12-20T05:55:18;64.90;;;26.83;;
72427;SDS011;60419;48.880;18.036;2023-12-20T05:58:04;63.83;;;26.20;;
72427;SDS011;60419;48.880;18.036;2023-12-20T06:00:50;59.22;;;25.40;;
72427;SDS011;60419;48.880;18.036;2023-12-20T06:03:35;58.97;;;26.13;;
72427;SDS011;60419;48.880;18.036;2023-12-20T06:06:20;60.40;;;25.48;;
72427;SDS011;60419;48.880;18.036;2023-12-20T06:09:06;62.55;;;24.83;;
72427;SDS011;60419;48.880;18.036;2023-12-20T06:11:51;59.47;;;25.63;;
72427;SDS011;60419;48.880;18.036;2023-12-20T06:14:37;61.30;;;26.20;;
72427;SDS011;60419;48.880;18.036;2023-12-20T06:17:22;68.93;;;26.70;;
72427;SDS011;60419;48.880;18.036;2023-12-20T06:20:07;63.47;;;27.17;;
72427;SDS011;60419;48.880;18.036;2023-12-20T06:22:53;60.25;;;27.33;;
72427;SDS011;60419;48.880;18.036;2023-12-20T06:25:39;62.42;;;28.27;;
72427;SDS011;60419;48.880;18.036;2023-12-20T06:28:24;68.25;;;28.90;;
72427;SDS011;60419;48.880;18.036;2023-12-20T06:31:09;66.88;;;25.88;;
72427;SDS011;60419;48.880;18.036;2023-12-20T06:33:55;70.28;;;28.10;;
72427;SDS011;60419;48.880;18.036;2023-12-20T06:36:42;56.28;;;21.02;;
72427;SDS011;60419;48.880;18.036;2023-12-20T06:39:27;112.28;;;38.00;;
72427;SDS011;60419;48.880;18.036;2023-12-20T06:42:14;122.03;;;44.33;;
72427;SDS011;60419;48.880;18.036;2023-12-20T06:44:59;84.60;;;33.33;;
72427;SDS011;60419;48.880;18.036;2023-12-20T06:47:44;81.38;;;34.17;;
72427;SDS011;60419;48.880;18.036;2023-12-20T06:50:30;67.03;;;26.42;;
72427;SDS011;60419;48.880;18.036;2023-12-20T06:53:15;58.40;;;26.77;;
72427;SDS011;60419;48.880;18.036;2023-12-20T06:56:01;60.97;;;25.75;;
72427;SDS011;60419;48.880;18.036;2023-12-20T06:58:47;57.70;;;25.23;;
72427;SDS011;60419;48.880;18.036;2023-12-20T07:01:33;61.13;;;26.20;;
72427;SDS011;60419;48.880;18.036;2023-12-20T07:04:18;62.88;;;27.42;;
72427;SDS011;60419;48.880;18.036;2023-12-20T07:07:06;71.15;;;29.58;;
72427;SDS011;60419;48.880;18.036;2023-12-20T07:09:52;54.55;;;24.27;;
72427;SDS011;60419;48.880;18.036;2023-12-20T07:12:37;47.50;;;22.70;;
72427;SDS011;60419;48.880;18.036;2023-12-20T07:15:22;53.08;;;23.70;;
72427;SDS011;60419;48.880;18.036;2023-12-20T07:18:08;55.13;;;24.65;;
72427;SDS011;60419;48.880;18.036;2023-12-20T07:20:53;45.58;;;22.90;;
72427;SDS011;60419;48.880;18.036;2023-12-20T07:23:40;48.25;;;23.70;;
72427;SDS011;60419;48.880;18.036;2023-12-20T07:26:25;49.90;;;23.42;;
72427;SDS011;60419;48.880;18.036;2023-12-20T07:29:11;63.70;;;28.83;;
72427;SDS011;60419;48.880;18.036;2023-12-20T07:31:56;49.47;;;23.95;;
72427;SDS011;60419;48.880;18.036;2023-12-20T07:34:41;49.83;;;23.70;;
72427;SDS011;60419;48.880;18.036;2023-12-20T07:37:27;53.45;;;24.00;;
72427;SDS011;60419;48.880;18.036;2023-12-20T07:40:12;50.03;;;24.17;;
72427;SDS011;60419;48.880;18.036;2023-12-20T07:42:58;53.58;;;24.55;;
72427;SDS011;60419;48.880;18.036;2023-12-20T07:45:43;53.03;;;23.85;;
72427;SDS011;60419;48.880;18.036;2023-12-20T07:48:29;52.95;;;23.20;;
72427;SDS011;60419;48.880;18.036;2023-12-20T07:51:14;61.42;;;26.10;;
72427;SDS011;60419;48.880;18.036;2023-12-20T07:53:59;64.25;;;26.50;;
72427;SDS011;60419;48.880;18.036;2023-12-20T07:56:46;63.67;;;26.50;;
72427;SDS011;60419;48.880;18.036;2023-12-20T07:59:31;68.80;;;27.55;;
72427;SDS011;60419;48.880;18.036;2023-12-20T08:02:17;63.95;;;27.88;;
72427;SDS011;60419;48.880;18.036;2023-12-20T08:05:02;64.25;;;27.45;;
72427;SDS011;60419;48.880;18.036;2023-12-20T08:07:48;65.20;;;27.33;;
72427;SDS011;60419;48.880;18.036;2023-12-20T08:10:33;56.80;;;26.15;;
72427;SDS011;60419;48.880;18.036;2023-12-20T08:13:18;63.50;;;26.77;;
72427;SDS011;60419;48.880;18.036;2023-12-20T08:16:04;65.35;;;27.20;;
72427;SDS011;60419;48.880;18.036;2023-12-20T08:18:50;59.33;;;28.10;;
72427;SDS011;60419;48.880;18.036;2023-12-20T08:21:35;62.45;;;27.15;;
72427;SDS011;60419;48.880;18.036;2023-12-20T08:24:21;65.75;;;27.92;;
72427;SDS011;60419;48.880;18.036;2023-12-20T08:27:06;57.67;;;27.13;;
72427;SDS011;60419;48.880;18.036;2023-12-20T08:29:52;62.60;;;28.02;;
72427;SDS011;60419;48.880;18.036;2023-12-20T08:32:37;60.85;;;27.02;;
72427;SDS011;60419;48.880;18.036;2023-12-20T08:35:22;57.63;;;25.77;;
72427;SDS011;60419;48.880;18.036;2023-12-20T08:38:09;56.75;;;26.63;;
72427;SDS011;60419;48.880;18.036;2023-12-20T08:40:54;58.78;;;26.70;;
72427;SDS011;60419;48.880;18.036;2023-12-20T08:43:39;61.05;;;25.05;;
72427;SDS011;60419;48.880;18.036;2023-12-20T08:46:25;61.78;;;26.17;;
72427;SDS011;60419;48.880;18.036;2023-12-20T08:49:10;50.30;;;24.63;;
72427;SDS011;60419;48.880;18.036;2023-12-20T08:51:56;51.17;;;24.73;;
72427;SDS011;60419;48.880;18.036;2023-12-20T08:54:41;49.08;;;25.20;;
72427;SDS011;60419;48.880;18.036;2023-12-20T08:57:26;50.85;;;25.70;;
72427;SDS011;60419;48.880;18.036;2023-12-20T09:00:13;51.33;;;24.17;;
72427;SDS011;60419;48.880;18.036;2023-12-20T09:02:58;47.92;;;23.67;;
72427;SDS011;60419;48.880;18.036;2023-12-20T09:05:44;51.05;;;24.27;;
72427;SDS011;60419;48.880;18.036;2023-12-20T09:08:29;48.67;;;23.92;;
72427;SDS011;60419;48.880;18.036;2023-12-20T09:11:15;47.10;;;23.85;;
72427;SDS011;60419;48.880;18.036;2023-12-20T09:14:00;51.72;;;24.98;;
72427;SDS011;60419;48.880;18.036;2023-12-20T09:16:46;53.00;;;25.45;;
72427;SDS011;60419;48.880;18.036;2023-12-20T09:19:31;54.42;;;25.58;;
72427;SDS011;60419;48.880;18.036;2023-12-20T09:22:16;49.80;;;24.27;;
72427;SDS011;60419;48.880;18.036;2023-12-20T09:25:02;50.92;;;24.40;;
72427;SDS011;60419;48.880;18.036;2023-12-20T09:27:48;51.63;;;25.17;;
72427;SDS011;60419;48.880;18.036;2023-12-20T09:30:33;54.20;;;24.50;;
72427;SDS011;60419;48.880;18.036;2023-12-20T09:33:20;56.95;;;24.80;;
72427;SDS011;60419;48.880;18.036;2023-12-20T09:36:05;53.03;;;26.58;;
72427;SDS011;60419;48.880;18.036;2023-12-20T09:38:51;56.95;;;26.17;;
72427;SDS011;60419;48.880;18.036;2023-12-20T09:41:37;57.53;;;25.80;;
72427;SDS011;60419;48.880;18.036;2023-12-20T09:44:28;57.00;;;26.73;;
72427;SDS011;60419;48.880;18.036;2023-12-20T09:47:14;54.78;;;24.50;;
72427;SDS011;60419;48.880;18.036;2023-12-20T09:50:01;52.92;;;24.55;;
72427;SDS011;60419;48.880;18.036;2023-12-20T09:52:51;55.78;;;23.80;;
72427;SDS011;60419;48.880;18.036;2023-12-20T09:55:39;53.73;;;24.50;;
72427;SDS011;60419;48.880;18.036;2023-12-20T09:58:26;49.38;;;23.40;;
72427;SDS011;60419;48.880;18.036;2023-12-20T10:01:12;48.40;;;23.00;;
72427;SDS011;60419;48.880;18.036;2023-12-20T10:03:59;50.08;;;24.33;;
72427;SDS011;60419;48.880;18.036;2023-12-20T10:06:45;52.13;;;23.35;;
72427;SDS011;60419;48.880;18.036;2023-12-20T10:09:31;52.80;;;24.45;;
72427;SDS011;60419;48.880;18.036;2023-12-20T10:12:17;54.95;;;23.40;;
72427;SDS011;60419;48.880;18.036;2023-12-20T10:15:02;49.97;;;23.00;;
72427;SDS011;60419;48.880;18.036;2023-12-20T10:17:48;47.25;;;23.88;;
72427;SDS011;60419;48.880;18.036;2023-12-20T10:20:34;44.13;;;21.00;;
72427;SDS011;60419;48.880;18.036;2023-12-20T10:23:19;48.28;;;22.33;;
72427;SDS011;60419;48.880;18.036;2023-12-20T10:26:05;46.85;;;23.00;;
72427;SDS011;60419;48.880;18.036;2023-12-20T10:28:54;50.97;;;23.80;;
72427;SDS011;60419;48.880;18.036;2023-12-20T10:31:45;51.85;;;23.15;;
72427;SDS011;60419;48.880;18.036;2023-12-20T10:34:32;49.22;;;24.33;;
72427;SDS011;60419;48.880;18.036;2023-12-20T10:37:17;43.92;;;22.33;;
72427;SDS011;60419;48.880;18.036;2023-12-20T10:40:03;48.55;;;22.75;;
72427;SDS011;60419;48.880;18.036;2023-12-20T10:42:51;42.75;;;21.67;;
72427;SDS011;60419;48.880;18.036;2023-12-20T10:45:37;43.58;;;20.83;;
72427;SDS011;60419;48.880;18.036;2023-12-20T10:48:22;42.13;;;21.33;;
72427;SDS011;60419;48.880;18.036;2023-12-20T10:51:14;44.35;;;21.85;;
72427;SDS011;60419;48.880;18.036;2023-12-20T10:54:03;41.35;;;21.73;;
72427;SDS011;60419;48.880;18.036;2023-12-20T10:56:49;41.00;;;21.00;;
72427;SDS011;60419;48.880;18.036;2023-12-20T10:59:37;43.13;;;20.67;;
72427;SDS011;60419;48.880;18.036;2023-12-20T11:02:24;41.17;;;21.17;;
72427;SDS011;60419;48.880;18.036;2023-12-20T11:08:12;40.38;;;19.95;;
72427;SDS011;60419;48.880;18.036;2023-12-20T11:11:13;41.13;;;21.88;;
72427;SDS011;60419;48.880;18.036;2023-12-20T11:14:17;38.55;;;19.05;;
72427;SDS011;60419;48.880;18.036;2023-12-20T11:17:08;38.47;;;20.50;;
72427;SDS011;60419;48.880;18.036;2023-12-20T11:22:52;40.25;;;19.98;;
72427;SDS011;60419;48.880;18.036;2023-12-20T11:28:50;39.30;;;19.90;;
72427;SDS011;60419;48.880;18.036;2023-12-20T11:31:39;39.33;;;20.35;;
72427;SDS011;60419;48.880;18.036;2023-12-20T11:34:30;37.67;;;19.15;;
72427;SDS011;60419;48.880;18.036;2023-12-20T11:37:19;33.58;;;19.60;;
72427;SDS011;60419;48.880;18.036;2023-12-20T11:40:05;37.00;;;19.00;;
72427;SDS011;60419;48.880;18.036;2023-12-20T11:42:54;34.42;;;18.95;;
72427;SDS011;60419;48.880;18.036;2023-12-20T11:45:47;33.88;;;18.73;;
72427;SDS011;60419;48.880;18.036;2023-12-20T11:48:36;37.47;;;18.38;;
72427;SDS011;60419;48.880;18.036;2023-12-20T11:51:23;38.20;;;20.83;;
72427;SDS011;60419;48.880;18.036;2023-12-20T11:54:08;36.15;;;19.02;;
72427;SDS011;60419;48.880;18.036;2023-12-20T11:56:54;34.08;;;17.63;;
72427;SDS011;60419;48.880;18.036;2023-12-20T11:59:39;36.47;;;18.80;;
72427;SDS011;60419;48.880;18.036;2023-12-20T12:02:25;35.88;;;19.17;;
72427;SDS011;60419;48.880;18.036;2023-12-20T12:05:10;31.05;;;17.38;;
72427;SDS011;60419;48.880;18.036;2023-12-20T12:07:55;32.58;;;18.33;;
72427;SDS011;60419;48.880;18.036;2023-12-20T12:10:41;35.85;;;18.92;;
72427;SDS011;60419;48.880;18.036;2023-12-20T12:13:26;31.55;;;16.38;;
72427;SDS011;60419;48.880;18.036;2023-12-20T12:16:13;26.23;;;15.15;;
72427;SDS011;60419;48.880;18.036;2023-12-20T12:19:02;27.05;;;16.08;;
72427;SDS011;60419;48.880;18.036;2023-12-20T12:21:49;30.25;;;15.07;;
72427;SDS011;60419;48.880;18.036;2023-12-20T12:24:36;24.67;;;13.40;;
72427;SDS011;60419;48.880;18.036;2023-12-20T12:27:22;24.45;;;14.02;;
72427;SDS011;60419;48.880;18.036;2023-12-20T12:30:08;24.50;;;13.90;;
72427;SDS011;60419;48.880;18.036;2023-12-20T12:32:55;20.95;;;12.55;;
72427;SDS011;60419;48.880;18.036;2023-12-20T12:35:41;21.98;;;12.65;;
72427;SDS011;60419;48.880;18.036;2023-12-20T12:38:27;22.77;;;12.80;;
72427;SDS011;60419;48.880;18.036;2023-12-20T12:41:13;22.75;;;11.85;;
72427;SDS011;60419;48.880;18.036;2023-12-20T12:44:00;27.55;;;16.20;;
72427;SDS011;60419;48.880;18.036;2023-12-20T12:46:46;27.45;;;14.50;;
72427;SDS011;60419;48.880;18.036;2023-12-20T12:49:31;26.30;;;15.57;;
72427;SDS011;60419;48.880;18.036;2023-12-20T12:52:17;21.10;;;12.73;;
72427;SDS011;60419;48.880;18.036;2023-12-20T12:55:02;21.10;;;11.75;;
72427;SDS011;60419;48.880;18.036;2023-12-20T12:57:49;20.73;;;12.15;;
72427;SDS011;60419;48.880;18.036;2023-12-20T13:00:35;18.60;;;10.52;;
72427;SDS011;60419;48.880;18.036;2023-12-20T13:03:20;24.85;;;13.23;;
72427;SDS011;60419;48.880;18.036;2023-12-20T13:06:06;22.85;;;13.70;;
72427;SDS011;60419;48.880;18.036;2023-12-20T13:08:53;18.30;;;10.23;;
72427;SDS011;60419;48.880;18.036;2023-12-20T13:11:39;17.92;;;10.52;;
72427;SDS011;60419;48.880;18.036;2023-12-20T13:14:24;16.98;;;9.73;;
72427;SDS011;60419;48.880;18.036;2023-12-20T13:17:10;9.57;;;5.45;;
72427;SDS011;60419;48.880;18.036;2023-12-20T13:19:55;15.52;;;8.80;;
72427;SDS011;60419;48.880;18.036;2023-12-20T13:22:41;11.18;;;5.95;;
72427;SDS011;60419;48.880;18.036;2023-12-20T13:25:26;8.93;;;4.85;;
72427;SDS011;60419;48.880;18.036;2023-12-20T13:28:11;7.40;;;4.05;;
72427;SDS011;60419;48.880;18.036;2023-12-20T13:30:57;10.13;;;6.10;;
72427;SDS011;60419;48.880;18.036;2023-12-20T13:33:42;9.35;;;6.03;;
72427;SDS011;60419;48.880;18.036;2023-12-20T13:36:28;9.57;;;5.57;;
72427;SDS011;60419;48.880;18.036;2023-12-20T13:39:13;8.82;;;5.65;;
72427;SDS011;60419;48.880;18.036;2023-12-20T13:41:58;9.55;;;5.68;;
72427;SDS011;60419;48.880;18.036;2023-12-20T13:44:44;9.65;;;5.95;;
72427;SDS011;60419;48.880;18.036;2023-12-20T13:47:29;10.70;;;6.75;;
72427;SDS011;60419;48.880;18.036;2023-12-20T13:50:14;10.23;;;6.57;;
72427;SDS011;60419;48.880;18.036;2023-12-20T13:53:00;15.45;;;9.00;;
72427;SDS011;60419;48.880;18.036;2023-12-20T13:55:46;15.82;;;9.95;;
72427;SDS011;60419;48.880;18.036;2023-12-20T13:58:31;19.95;;;13.18;;
72427;SDS011;60419;48.880;18.036;2023-12-20T14:01:16;19.50;;;11.02;;
72427;SDS011;60419;48.880;18.036;2023-12-20T14:04:02;19.75;;;11.65;;
72427;SDS011;60419;48.880;18.036;2023-12-20T14:06:48;19.40;;;11.35;;
72427;SDS011;60419;48.880;18.036;2023-12-20T14:09:33;17.80;;;10.20;;
72427;SDS011;60419;48.880;18.036;2023-12-20T14:12:19;12.27;;;7.53;;
72427;SDS011;60419;48.880;18.036;2023-12-20T14:15:05;18.88;;;12.20;;
72427;SDS011;60419;48.880;18.036;2023-12-20T14:17:56;15.40;;;8.98;;
72427;SDS011;60419;48.880;18.036;2023-12-20T14:20:41;11.45;;;7.10;;
72427;SDS011;60419;48.880;18.036;2023-12-20T14:23:27;10.02;;;6.22;;
72427;SDS011;60419;48.880;18.036;2023-12-20T14:26:12;10.27;;;6.18;;
72427;SDS011;60419;48.880;18.036;2023-12-20T14:28:59;10.27;;;7.15;;
72427;SDS011;60419;48.880;18.036;2023-12-20T14:31:45;9.95;;;6.88;;
72427;SDS011;60419;48.880;18.036;2023-12-20T14:34:30;12.57;;;7.45;;
72427;SDS011;60419;48.880;18.036;2023-12-20T14:37:15;10.60;;;6.65;;
72427;SDS011;60419;48.880;18.036;2023-12-20T14:40:02;12.48;;;8.02;;
72427;SDS011;60419;48.880;18.036;2023-12-20T14:42:48;14.63;;;7.53;;
72427;SDS011;60419;48.880;18.036;2023-12-20T14:45:34;12.35;;;7.40;;
72427;SDS011;60419;48.880;18.036;2023-12-20T14:48:19;13.55;;;7.47;;
72427;SDS011;60419;48.880;18.036;2023-12-20T14:51:06;12.15;;;7.70;;
72427;SDS011;60419;48.880;18.036;2023-12-20T14:53:51;11.88;;;7.53;;
72427;SDS011;60419;48.880;18.036;2023-12-20T14:56:37;11.35;;;7.35;;
72427;SDS011;60419;48.880;18.036;2023-12-20T14:59:22;10.90;;;6.78;;
72427;SDS011;60419;48.880;18.036;2023-12-20T15:02:08;11.18;;;7.30;;
72427;SDS011;60419;48.880;18.036;2023-12-20T15:04:53;11.73;;;7.65;;
72427;SDS011;60419;48.880;18.036;2023-12-20T15:07:38;14.98;;;8.48;;
72427;SDS011;60419;48.880;18.036;2023-12-20T15:10:24;9.07;;;5.57;;
72427;SDS011;60419;48.880;18.036;2023-12-20T15:13:09;9.68;;;6.35;;
72427;SDS011;60419;48.880;18.036;2023-12-20T15:15:54;11.70;;;6.22;;
72427;SDS011;60419;48.880;18.036;2023-12-20T15:18:40;8.75;;;5.13;;
72427;SDS011;60419;48.880;18.036;2023-12-20T15:21:25;9.10;;;5.40;;
72427;SDS011;60419;48.880;18.036;2023-12-20T15:24:16;7.82;;;5.30;;
72427;SDS011;60419;48.880;18.036;2023-12-20T15:27:05;8.55;;;4.75;;
72427;SDS011;60419;48.880;18.036;2023-12-20T15:29:50;11.45;;;7.05;;
72427;SDS011;60419;48.880;18.036;2023-12-20T15:32:36;10.77;;;6.50;;
72427;SDS011;60419;48.880;18.036;2023-12-20T15:35:22;8.77;;;5.55;;
72427;SDS011;60419;48.880;18.036;2023-12-20T15:38:07;11.43;;;6.60;;
72427;SDS011;60419;48.880;18.036;2023-12-20T15:40:53;10.43;;;6.22;;
72427;SDS011;60419;48.880;18.036;2023-12-20T15:43:38;8.63;;;5.85;;
72427;SDS011;60419;48.880;18.036;2023-12-20T15:46:23;8.98;;;5.60;;
72427;SDS011;60419;48.880;18.036;2023-12-20T15:49:09;9.43;;;5.80;;
72427;SDS011;60419;48.880;18.036;2023-12-20T15:51:56;6.47;;;4.68;;
72427;SDS011;60419;48.880;18.036;2023-12-20T15:54:42;8.25;;;4.50;;
72427;SDS011;60419;48.880;18.036;2023-12-20T15:57:27;7.00;;;4.50;;
72427;SDS011;60419;48.880;18.036;2023-12-20T16:00:12;8.23;;;4.55;;
72427;SDS011;60419;48.880;18.036;2023-12-20T16:02:58;7.22;;;4.85;;
72427;SDS011;60419;48.880;18.036;2023-12-20T16:05:43;8.73;;;4.70;;